WMKJ/JHB METAR and TAF weather

Enter ICAO airport designator
Station Type Date Time Source
WMKJ METAR 2021/05/11 00:00 UTC NOAA

WMKJ 110000Z 00000KT 9000 FEW008 26/25 Q1007


Station Type Date Time Source
WMKJ Decoded METAR 2021/05/11 00:00 UTC NOAA

Johore Bharu / Senai, Malaysia (WMKJ) 01-38N 103-40E 40M
May 10, 2021 - 08:00 PM EDT / 2021.05.11 0000 UTC
Wind: Calm:0
Visibility: 5 mile(s):0
Sky conditions: mostly clear
Temperature: 78 F (26 C)
Dew Point: 77 F (25 C)
Relative Humidity: 94%
Pressure (altimeter): 29.74 in. Hg (1007 hPa)
ob: WMKJ 110000Z 00000KT 9000 FEW008 26/25 Q1007
cycle: 0

Station Type Date Time Source
WMKJ TAF 2021/05/10 18:24 UTC NOAA

TAF COR TAF COR WMKJ 101719Z 1018/1118 VRB04KT 9999 FEW020
TEMPO 1108/1110 4000 TSRA FEW017CB SCT018

Example: see airport list